Balko, Oklahoma
Current Conditions -  °F | °C
As of 5:55 AM on Saturday 01 Nov 2014 (Local Time) from KPYX Reporting Station
Clear Clear  
Wind Chill: 26°   Ceiling: Unl
Heat Index: 36°   Visibility: 10mi
Dew Point: 25°   Wind: 15mph
Humidity: 64%   Direction: 150°SSE
Pressure: 30.25"   Gusts: NA
Location:  36.63°N, 100.69°W
Report Text: KPYX 011055Z AUTO 15013KT 10SM CLR 02/M04 A3025 RMK AO2 T00201041
Loading
Personal Weather Stations






























Interactive Weather Map
Tropical Storm Tracking
New forecast layout! Learn more

10-Day Weather Forecast

Advertisements
Track Severe Weather on mobile